Time;durP1;ratioP1;P1;durP2;ratioP2;P2;SDS_P1;SDS_P2;PMS_P1;PMS_P2;Temp;Humidity;BMP_temperature;BMP_pressure;BME280_temperature;BME280_humidity;BME280_pressure;Samples;Min_cycle;Max_cycle;Signal;HPM_P1;HPM_P2
2021/01/15 00:01:21;;;;;;;57.90;26.45;;;;;;;-1.08;100.00;98016.06;5003146;28;20053;-84
2021/01/15 00:03:48;;;;;;;62.17;25.30;;;;;;;-1.10;100.00;98010.19;5020746;28;20056;-85
2021/01/15 00:06:22;;;;;;;50.08;23.23;;;;;;;-1.11;100.00;98013.88;5003217;28;20053;-85
2021/01/15 00:08:49;;;;;;;56.90;25.10;;;;;;;-1.16;100.00;98011.13;5011515;28;20042;-84
2021/01/15 00:11:20;;;;;;;60.67;26.50;;;;;;;-1.21;100.00;98009.13;5005629;28;20137;-84
2021/01/15 00:13:47;;;;;;;59.28;25.67;;;;;;;-1.16;100.00;98014.56;5021855;28;20068;-85
2021/01/15 00:16:22;;;;;;;63.97;25.50;;;;;;;-1.22;100.00;98004.88;5020846;28;20072;-85
2021/01/15 00:18:50;;;;;;;59.38;25.80;;;;;;;-1.16;100.00;98025.19;5003629;28;20121;-85
2021/01/15 00:21:27;;;;;;;57.55;24.90;;;;;;;-1.14;100.00;98020.47;5020493;28;20041;-85
2021/01/15 00:23:56;;;;;;;58.42;26.27;;;;;;;-1.18;100.00;98015.84;5016234;28;20076;-85
2021/01/15 00:26:26;;;;;;;62.15;25.85;;;;;;;-1.14;100.00;98027.63;5023227;28;20052;-85
2021/01/15 00:28:54;;;;;;;57.70;25.88;;;;;;;-1.14;100.00;98017.00;5017689;28;20051;-85
2021/01/15 00:31:29;;;;;;;57.15;26.05;;;;;;;-1.11;100.00;98029.81;5002570;28;20049;-85
2021/01/15 00:33:56;;;;;;;70.32;27.58;;;;;;;-1.11;100.00;98021.84;5002909;28;20057;-85
2021/01/15 00:36:22;;;;;;;63.38;26.67;;;;;;;-1.26;100.00;98004.53;4987801;28;20519;-85
2021/01/15 00:38:49;;;;;;;65.65;27.13;;;;;;;-1.11;100.00;98033.28;5003060;28;20045;-85
2021/01/15 00:41:16;;;;;;;69.70;28.08;;;;;;;-1.09;100.00;98044.50;5016937;28;20360;-85
2021/01/15 00:43:42;;;;;;;76.95;28.02;;;;;;;-1.13;100.00;98022.06;5033836;28;20041;-86
2021/01/15 00:49:15;;;;;;;74.13;26.85;;;;;;;-1.14;100.00;98040.91;5010261;28;20076;-85
2021/01/15 00:51:50;;;;;;;68.57;27.23;;;;;;;-1.10;100.00;98037.56;5003455;28;20049;-85
2021/01/15 00:54:16;;;;;;;69.30;26.88;;;;;;;-1.09;100.00;98025.09;5020842;28;20071;-85
2021/01/15 00:56:43;;;;;;;69.00;26.77;;;;;;;-1.08;100.00;98042.63;5028669;28;20171;-85
2021/01/15 00:59:10;;;;;;;65.15;26.23;;;;;;;-1.02;100.00;98045.19;5040532;28;20050;-85
2021/01/15 01:01:38;;;;;;;73.95;27.55;;;;;;;-1.10;100.00;98032.25;5021288;28;20037;-85
2021/01/15 01:04:05;;;;;;;67.28;27.83;;;;;;;-1.05;100.00;98042.97;5005340;28;20104;-85
2021/01/15 01:06:33;;;;;;;67.30;26.63;;;;;;;-1.08;100.00;98032.81;5021315;28;20041;-85
2021/01/15 01:09:02;;;;;;;73.07;28.02;;;;;;;-0.96;100.00;98048.78;5004937;28;20094;-85
2021/01/15 01:11:31;;;;;;;70.25;27.17;;;;;;;-0.96;100.00;98048.78;5014609;28;20132;-85
2021/01/15 01:13:58;;;;;;;74.35;27.33;;;;;;;-1.00;100.00;98048.41;5001729;28;20062;-85
2021/01/15 01:16:26;;;;;;;76.90;26.35;;;;;;;-1.09;100.00;98028.56;5002513;28;20061;-85
2021/01/15 01:18:54;;;;;;;70.47;26.45;;;;;;;-1.00;100.00;98047.59;5018823;28;20045;-85
2021/01/15 01:21:22;;;;;;;73.63;26.33;;;;;;;-0.99;100.00;98058.00;5001705;28;20056;-84
2021/01/15 01:23:49;;;;;;;70.05;26.15;;;;;;;-0.97;100.00;98055.94;5001724;28;20139;-84
2021/01/15 01:26:15;;;;;;;70.50;26.30;;;;;;;-0.87;100.00;98052.69;5003538;28;20045;-85
2021/01/15 01:28:42;;;;;;;78.85;27.10;;;;;;;-0.98;100.00;98056.94;5018113;28;20041;-84
2021/01/15 01:31:13;;;;;;;71.10;26.30;;;;;;;-1.01;100.00;98048.66;5002032;28;20200;-85
2021/01/15 01:33:40;;;;;;;65.10;25.45;;;;;;;-1.05;100.00;98050.13;5003227;28;20046;-85
2021/01/15 01:36:07;;;;;;;66.88;26.25;;;;;;;-1.07;100.00;98045.06;5019269;28;20041;-85
2021/01/15 01:38:34;;;;;;;73.72;25.85;;;;;;;-1.06;100.00;98054.66;5002181;28;20397;-85
2021/01/15 01:41:00;;;;;;;83.22;27.80;;;;;;;-1.06;100.00;98053.84;5001352;28;20057;-85
2021/01/15 01:43:27;;;;;;;83.30;27.30;;;;;;;-1.07;100.00;98055.69;5019568;28;20451;-85
2021/01/15 01:45:55;;;;;;;83.20;27.02;;;;;;;-1.02;100.00;98053.16;5019536;28;20052;-85
2021/01/15 01:48:22;;;;;;;94.63;29.38;;;;;;;-1.08;100.00;98050.59;5002070;28;20052;-85
2021/01/15 01:50:52;;;;;;;131.45;28.88;;;;;;;-1.06;100.00;98052.00;5026431;28;20052;-85
2021/01/15 01:53:21;;;;;;;112.53;29.20;;;;;;;-1.01;100.00;98053.97;5001903;28;20053;-84
2021/01/15 01:55:47;;;;;;;131.05;29.90;;;;;;;-1.07;100.00;98049.56;5001758;28;20543;-84
2021/01/15 01:58:16;;;;;;;100.65;28.17;;;;;;;-0.99;100.00;98060.66;5017322;28;20457;-85
2021/01/15 02:00:44;;;;;;;131.73;29.40;;;;;;;-0.99;100.00;98049.22;5002270;28;20060;-84
2021/01/15 02:03:16;;;;;;;113.70;29.13;;;;;;;-1.00;100.00;98055.56;5002148;28;20053;-85
2021/01/15 02:05:43;;;;;;;94.78;27.98;;;;;;;-0.93;100.00;98048.31;5005895;28;20148;-85
2021/01/15 02:08:10;;;;;;;99.72;31.17;;;;;;;-1.01;100.00;98040.69;5009384;28;20029;-85
2021/01/15 02:10:45;;;;;;;110.00;29.58;;;;;;;-0.91;100.00;98055.00;5023706;28;20296;-85
2021/01/15 02:13:21;;;;;;;107.18;30.85;;;;;;;-0.94;100.00;98052.00;5018632;28;20548;-85
2021/01/15 02:15:57;;;;;;;139.30;30.85;;;;;;;-0.93;100.00;98056.28;5004222;28;20060;-85
2021/01/15 02:18:37;;;;;;;121.43;30.55;;;;;;;-0.96;100.00;98054.91;5003482;28;20053;-85
2021/01/15 02:21:43;;;;;;;171.00;32.83;;;;;;;-0.99;100.00;98058.00;5012814;28;20045;-85
2021/01/15 02:24:28;;;;;;;103.53;29.60;;;;;;;-0.99;100.00;98054.53;5026677;28;20394;-85
2021/01/15 02:27:32;;;;;;;124.67;30.00;;;;;;;-1.02;100.00;98055.81;5005467;28;20041;-86
2021/01/15 02:30:20;;;;;;;132.38;30.48;;;;;;;-0.97;100.00;98057.78;5020773;28;20088;-86
2021/01/15 02:33:08;;;;;;;131.48;29.65;;;;;;;-0.97;100.00;98049.78;5019287;28;20084;-85
2021/01/15 02:35:44;;;;;;;153.40;32.03;;;;;;;-0.96;100.00;98065.53;5037574;28;20512;-85
2021/01/15 02:38:20;;;;;;;222.27;31.98;;;;;;;-0.99;100.00;98058.00;5019060;28;20056;-86
2021/01/15 02:41:10;;;;;;;117.22;31.73;;;;;;;-0.92;100.00;98049.91;5029809;28;20103;-86
2021/01/15 02:43:47;;;;;;;127.63;32.13;;;;;;;-0.94;100.00;98058.13;5002651;28;20072;-87
2021/01/15 02:46:59;;;;;;;119.70;31.52;;;;;;;-0.83;100.00;98065.28;5005273;28;20049;-85
2021/01/15 02:49:27;;;;;;;163.73;31.35;;;;;;;-0.89;100.00;98060.09;5016187;28;20057;-85
2021/01/15 02:51:54;;;;;;;225.52;33.42;;;;;;;-0.91;100.00;98062.16;5017639;28;20119;-86
2021/01/15 02:54:21;;;;;;;145.95;30.60;;;;;;;-0.80;100.00;98070.13;5005297;28;20053;-85
2021/01/15 02:56:48;;;;;;;208.30;31.98;;;;;;;-0.92;100.00;98058.69;5021689;28;20508;-85
2021/01/15 02:59:15;;;;;;;191.65;32.22;;;;;;;-0.82;100.00;98071.41;5004198;28;20041;-86
2021/01/15 03:01:53;;;;;;;204.77;30.30;;;;;;;-0.84;100.00;98071.63;5003322;28;20056;-85
2021/01/15 03:05:05;;;;;;;167.25;31.90;;;;;;;-0.88;100.00;98073.13;5004154;28;20084;-85
2021/01/15 03:07:31;;;;;;;372.20;35.00;;;;;;;-0.92;100.00;98066.66;4999360;28;20113;-85
2021/01/15 03:10:01;;;;;;;192.57;33.55;;;;;;;-0.88;100.00;98069.69;5002479;28;20140;-85
2021/01/15 03:12:28;;;;;;;140.48;31.63;;;;;;;-0.95;100.00;98051.19;5002889;28;20046;-86
2021/01/15 03:14:55;;;;;;;142.52;31.73;;;;;;;-0.77;100.00;98060.88;5008109;28;20144;-85
2021/01/15 03:17:25;;;;;;;310.70;35.60;;;;;;;-0.89;100.00;98052.94;5012034;28;20129;-85
2021/01/15 03:19:53;;;;;;;147.52;33.20;;;;;;;-0.85;100.00;98071.88;5043433;28;20113;-86
2021/01/15 03:22:21;;;;;;;149.60;31.33;;;;;;;-0.78;100.00;98072.56;5023933;28;20151;-86
2021/01/15 03:24:55;;;;;;;235.75;32.33;;;;;;;-0.85;100.00;98072.66;5046622;28;20074;-85
2021/01/15 03:27:23;;;;;;;205.75;31.88;;;;;;;-0.91;100.00;98060.31;5002453;28;20049;-85
2021/01/15 03:29:49;;;;;;;137.90;30.80;;;;;;;-0.83;100.00;98069.78;5013709;28;20045;-84
2021/01/15 03:32:16;;;;;;;237.80;33.00;;;;;;;-0.90;100.00;98063.78;5028241;28;20405;-85
2021/01/15 03:34:43;;;;;;;184.95;29.52;;;;;;;-0.91;100.00;98070.13;5007815;28;20052;-85
2021/01/15 03:37:09;;;;;;;275.83;31.45;;;;;;;-0.93;100.00;98073.00;5023487;28;20060;-85
2021/01/15 03:39:37;;;;;;;242.43;32.42;;;;;;;-0.98;100.00;98064.91;5023275;28;20057;-86
2021/01/15 03:42:03;;;;;;;273.88;32.45;;;;;;;-0.95;100.00;98068.97;5010735;28;20076;-85
2021/01/15 03:44:30;;;;;;;279.15;31.50;;;;;;;-0.95;100.00;98066.31;5009427;28;20051;-86
2021/01/15 03:46:58;;;;;;;343.35;33.78;;;;;;;-0.88;100.00;98070.47;5026904;28;20042;-86
2021/01/15 03:49:25;;;;;;;256.08;34.33;;;;;;;-0.93;100.00;98067.69;4994860;28;20060;-85
2021/01/15 03:51:51;;;;;;;156.75;31.13;;;;;;;-1.00;100.00;98063.53;5044453;28;20045;-86
2021/01/15 03:54:18;;;;;;;223.55;32.92;;;;;;;-0.92;100.00;98071.16;5010637;28;20054;-85
2021/01/15 03:56:44;;;;;;;250.05;31.92;;;;;;;-0.87;100.00;98069.44;5006838;28;20038;-85
2021/01/15 03:59:10;;;;;;;214.63;32.22;;;;;;;-0.79;100.00;98082.38;5006463;28;20057;-85
2021/01/15 04:01:37;;;;;;;197.10;31.33;;;;;;;-0.80;100.00;98067.47;5023072;28;20155;-86
2021/01/15 04:04:04;;;;;;;216.85;32.50;;;;;;;-0.81;100.00;98078.34;4999100;28;20045;-85
2021/01/15 04:06:30;;;;;;;327.20;34.03;;;;;;;-0.85;100.00;98072.66;4991931;28;20052;-85
2021/01/15 04:08:56;;;;;;;253.25;34.65;;;;;;;-0.81;100.00;98073.03;5027360;28;20026;-85
2021/01/15 04:11:23;;;;;;;408.20;35.25;;;;;;;-0.84;100.00;98073.47;4972150;28;20049;-85
2021/01/15 04:13:49;;;;;;;160.65;33.58;;;;;;;-0.81;100.00;98068.53;5010874;28;20041;-86
2021/01/15 04:16:17;;;;;;;258.70;35.40;;;;;;;-0.73;100.00;98065.53;5022309;28;20080;-85
2021/01/15 04:18:43;;;;;;;137.13;32.08;;;;;;;-0.76;100.00;98075.81;5020044;28;20136;-85
2021/01/15 04:21:31;;;;;;;225.30;33.47;;;;;;;-0.73;100.00;98068.19;5005148;28;20054;-85
2021/01/15 04:23:57;;;;;;;216.20;33.45;;;;;;;-0.75;100.00;98072.91;5006457;28;20053;-85
2021/01/15 04:26:24;;;;;;;248.73;35.42;;;;;;;-0.78;100.00;98060.09;5007627;28;20048;-85
2021/01/15 04:28:50;;;;;;;289.65;35.13;;;;;;;-0.75;100.00;98074.78;5001557;28;20053;-85
2021/01/15 04:31:20;;;;;;;202.02;35.42;;;;;;;-0.79;100.00;98063.78;5019883;28;20124;-86
2021/01/15 04:33:47;;;;;;;143.68;32.30;;;;;;;-0.70;100.00;98074.88;5038557;28;20057;-85
2021/01/15 04:36:13;;;;;;;211.88;34.60;;;;;;;-0.78;100.00;98081.34;5002352;28;20052;-86
2021/01/15 04:38:47;;;;;;;228.07;35.38;;;;;;;-0.77;100.00;98068.84;5002502;28;20124;-85
2021/01/15 04:41:21;;;;;;;276.88;35.03;;;;;;;-0.77;100.00;98071.50;5018160;28;20049;-85
2021/01/15 04:43:53;;;;;;;236.45;34.97;;;;;;;-0.75;100.00;98082.75;5018490;28;20053;-84
2021/01/15 04:46:22;;;;;;;126.72;33.03;;;;;;;-0.63;100.00;98080.88;5001793;28;20623;-85
2021/01/15 04:48:53;;;;;;;140.55;34.90;;;;;;;-0.71;100.00;98073.25;5017138;28;20049;-86
2021/01/15 04:51:22;;;;;;;167.98;35.30;;;;;;;-0.80;100.00;98082.63;5016865;28;20511;-86
2021/01/15 04:54:03;;;;;;;114.45;35.17;;;;;;;-0.71;100.00;98091.84;5002104;28;20080;-86
2021/01/15 04:56:49;;;;;;;109.00;32.45;;;;;;;-0.77;100.00;98082.13;5009689;28;20491;-85
2021/01/15 04:59:17;;;;;;;110.18;32.67;;;;;;;-0.79;100.00;98077.06;5002970;28;20501;-85
2021/01/15 05:01:49;;;;;;;105.57;33.72;;;;;;;-0.74;100.00;98084.34;5009412;28;20496;-85
2021/01/15 05:04:17;;;;;;;94.93;32.92;;;;;;;-0.71;100.00;98081.22;5018529;28;20052;-86
2021/01/15 05:06:48;;;;;;;92.35;32.00;;;;;;;-0.77;100.00;98077.66;5001941;28;20041;-85
2021/01/15 05:09:23;;;;;;;92.85;30.58;;;;;;;-0.82;100.00;98085.50;5003161;28;20042;-85
2021/01/15 05:11:52;;;;;;;99.75;32.13;;;;;;;-0.81;100.00;98084.47;5023747;28;20041;-86
2021/01/15 05:14:20;;;;;;;93.97;31.70;;;;;;;-0.81;100.00;98078.34;5035159;28;20051;-86
2021/01/15 05:16:51;;;;;;;89.97;30.33;;;;;;;-0.79;100.00;98078.91;5033533;28;20568;-85
2021/01/15 05:19:19;;;;;;;89.00;30.95;;;;;;;-0.78;100.00;98078.69;5011480;23;20088;-79
2021/01/15 05:21:50;;;;;;;82.32;29.20;;;;;;;-0.67;100.00;98082.38;5015782;28;20053;-78
2021/01/15 05:24:17;;;;;;;76.85;28.02;;;;;;;-0.64;100.00;98089.88;4999784;28;20042;-78
2021/01/15 05:26:43;;;;;;;77.63;29.27;;;;;;;-0.62;100.00;98090.47;4984261;28;20049;-78
2021/01/15 05:29:09;;;;;;;82.00;30.25;;;;;;;-0.60;100.00;98090.25;5019297;28;20042;-79
2021/01/15 05:32:06;;;;;;;78.65;28.50;;;;;;;-0.59;100.00;98090.00;5018605;28;20468;-78
2021/01/15 05:34:33;;;;;;;74.07;28.63;;;;;;;-0.58;100.00;98091.63;4997750;28;20050;-79
2021/01/15 05:36:59;;;;;;;65.38;27.65;;;;;;;-0.64;100.00;98096.00;5018879;28;20493;-80
2021/01/15 05:39:28;;;;;;;74.22;27.23;;;;;;;-0.65;100.00;98085.63;5020252;28;20122;-79
2021/01/15 05:42:00;;;;;;;70.60;27.40;;;;;;;-0.59;100.00;98092.66;5020370;28;20061;-78
2021/01/15 05:44:26;;;;;;;64.70;26.08;;;;;;;-0.57;100.00;98097.75;5019049;28;20113;-78
2021/01/15 05:46:53;;;;;;;61.83;26.05;;;;;;;-0.51;100.00;98096.81;5020161;28;20106;-78
2021/01/15 05:49:20;;;;;;;64.88;26.10;;;;;;;-0.45;100.00;98098.53;5021411;28;20050;-78
2021/01/15 05:51:48;;;;;;;63.10;26.77;;;;;;;-0.51;100.00;98094.16;5021393;28;20046;-78
2021/01/15 05:54:30;;;;;;;57.88;24.50;;;;;;;-0.43;100.00;98096.44;5019829;28;20118;-79
2021/01/15 05:56:58;;;;;;;61.03;25.38;;;;;;;-0.46;100.00;98094.25;5015045;28;20034;-79
2021/01/15 05:59:25;;;;;;;62.22;26.02;;;;;;;-0.51;100.00;98102.94;4994143;28;20092;-79
2021/01/15 06:01:59;;;;;;;56.65;23.42;;;;;;;-0.46;100.00;98103.06;4990446;28;20054;-79
2021/01/15 06:04:38;;;;;;;58.22;25.13;;;;;;;-0.42;100.00;98108.72;5019551;28;20172;-80
2021/01/15 06:07:07;;;;;;;54.67;23.88;;;;;;;-0.45;100.00;98115.31;5024005;28;20052;-79
2021/01/15 06:09:34;;;;;;;53.35;23.27;;;;;;;-0.45;100.00;98111.84;5013057;28;20049;-79
2021/01/15 06:12:19;;;;;;;53.55;22.83;;;;;;;-0.43;100.00;98115.88;5022229;28;20041;-79
2021/01/15 06:14:57;;;;;;;59.08;24.10;;;;;;;-0.46;100.00;98118.19;5040787;28;20049;-79
2021/01/15 06:17:27;;;;;;;56.85;22.70;;;;;;;-0.42;100.00;98120.19;5041459;28;20041;-79
2021/01/15 06:19:58;;;;;;;59.78;24.13;;;;;;;-0.49;100.00;98108.81;5036879;28;20041;-79
2021/01/15 06:22:28;;;;;;;54.63;23.17;;;;;;;-0.48;100.00;98117.63;5020404;28;20045;-79
2021/01/15 06:25:22;;;;;;;58.58;24.38;;;;;;;-0.50;100.00;98128.50;5021575;28;20052;-78
2021/01/15 06:27:48;;;;;;;53.65;22.75;;;;;;;-0.43;100.00;98121.19;5005765;28;20125;-79
2021/01/15 06:30:20;;;;;;;56.15;23.63;;;;;;;-0.38;100.00;98131.13;5025111;28;20152;-79
2021/01/15 06:32:50;;;;;;;54.72;23.55;;;;;;;-0.32;100.00;98140.84;5022479;28;20064;-79
2021/01/15 06:35:26;;;;;;;53.53;22.80;;;;;;;-0.37;100.00;98130.91;5022640;28;20042;-79
2021/01/15 06:38:00;;;;;;;53.65;22.52;;;;;;;-0.44;100.00;98137.41;5022344;28;20083;-79
2021/01/15 06:40:44;;;;;;;38.28;16.73;;;;;;;-0.39;100.00;98137.50;5023053;28;20052;-80
2021/01/15 06:43:11;;;;;;;46.05;20.33;;;;;;;-0.35;100.00;98150.09;5022067;28;20050;-79
2021/01/15 06:45:45;;;;;;;42.53;19.20;;;;;;;-0.33;100.00;98147.19;5023334;28;20056;-79
2021/01/15 06:48:23;;;;;;;45.38;19.95;;;;;;;-0.46;100.00;98134.97;4986789;28;20049;-78
2021/01/15 06:50:51;;;;;;;45.63;20.15;;;;;;;-0.36;100.00;98153.78;5003064;28;20046;-79
2021/01/15 06:53:30;;;;;;;47.75;20.20;;;;;;;-0.46;100.00;98156.22;5004344;28;20038;-78
2021/01/15 06:56:02;;;;;;;46.30;19.95;;;;;;;-0.34;100.00;98157.06;4998546;28;20056;-78
2021/01/15 06:58:35;;;;;;;47.25;19.65;;;;;;;-0.49;100.00;98145.28;5001060;28;20034;-78
2021/01/15 07:01:20;;;;;;;46.35;18.98;;;;;;;-0.38;100.00;98165.72;4984464;28;20053;-78
2021/01/15 07:03:47;;;;;;;47.63;19.90;;;;;;;-0.31;100.00;98175.19;5004988;28;20121;-79
2021/01/15 07:06:33;;;;;;;48.53;19.55;;;;;;;-0.32;100.00;98162.94;5000499;28;20125;-77
2021/01/15 07:09:04;;;;;;;51.45;18.85;;;;;;;-0.38;100.00;98171.03;4996309;28;20046;-78
2021/01/15 07:11:31;;;;;;;43.33;18.02;;;;;;;-0.37;100.00;98172.66;5008049;28;20074;-78
2021/01/15 07:14:02;;;;;;;42.92;18.60;;;;;;;-0.33;100.00;98179.13;5004115;28;20046;-78
2021/01/15 07:16:39;;;;;;;44.17;18.50;;;;;;;-0.33;100.00;98192.41;4987475;28;20047;-78
2021/01/15 07:19:05;;;;;;;45.35;19.38;;;;;;;-0.36;100.00;98187.59;5010567;28;20106;-78
2021/01/15 07:21:36;;;;;;;41.60;17.40;;;;;;;-0.30;100.00;98178.66;5015438;28;20056;-77
2021/01/15 07:24:10;;;;;;;38.50;17.23;;;;;;;-0.29;100.00;98190.94;5014248;28;20057;-78
2021/01/15 07:26:40;;;;;;;40.03;18.05;;;;;;;-0.28;100.00;98188.03;4997047;28;20042;-78
2021/01/15 07:29:13;;;;;;;44.03;18.38;;;;;;;-0.23;100.00;98190.81;4996015;28;20391;-78
2021/01/15 07:31:43;;;;;;;39.08;17.13;;;;;;;-0.24;100.00;98191.88;4996662;28;20516;-77
2021/01/15 07:34:15;;;;;;;40.17;17.23;;;;;;;-0.33;100.00;98195.09;4996012;28;20053;-78
2021/01/15 07:36:42;;;;;;;39.38;16.77;;;;;;;-0.29;100.00;98206.91;4996200;28;20061;-78
2021/01/15 07:39:12;;;;;;;39.75;17.83;;;;;;;0.22;100.00;98204.28;4994648;28;20472;-79
2021/01/15 07:41:41;;;;;;;37.85;16.98;;;;;;;-0.20;100.00;98202.81;5002771;28;20053;-78
2021/01/15 07:44:22;;;;;;;38.47;16.58;;;;;;;-0.29;100.00;98210.38;5013614;28;20049;-79
2021/01/15 07:46:49;;;;;;;37.63;16.17;;;;;;;-0.28;100.00;98203.16;5011516;28;20048;-78
2021/01/15 07:49:16;;;;;;;37.50;17.45;;;;;;;-0.24;100.00;98193.72;5010984;28;20052;-78
2021/01/15 07:52:04;;;;;;;38.22;17.90;;;;;;;-0.14;100.00;98207.22;5013381;28;20045;-78
2021/01/15 07:54:46;;;;;;;34.78;15.80;;;;;;;-0.13;100.00;98204.31;5011681;28;20049;-79
2021/01/15 07:57:13;;;;;;;33.60;15.25;;;;;;;-0.15;100.00;98192.31;5012484;28;20038;-78
2021/01/15 07:59:39;;;;;;;32.08;14.75;;;;;;;-0.11;100.00;98207.59;5014369;28;20405;-78
2021/01/15 08:02:06;;;;;;;28.33;14.27;;;;;;;-0.07;100.00;98202.59;5014653;28;20048;-78
2021/01/15 08:04:32;;;;;;;33.08;15.13;;;;;;;-0.04;100.00;98215.44;5009291;28;20053;-78
2021/01/15 08:07:10;;;;;;;31.20;14.90;;;;;;;-0.12;100.00;98208.63;4998834;28;20053;-78
2021/01/15 08:09:40;;;;;;;32.10;15.05;;;;;;;-0.03;100.00;98211.75;5030840;28;20041;-78
2021/01/15 08:12:07;;;;;;;37.22;15.27;;;;;;;-0.08;100.00;98209.75;5029678;28;20045;-78
2021/01/15 08:14:34;;;;;;;32.65;15.20;;;;;;;0.09;100.00;98209.06;5005872;28;20121;-78
2021/01/15 08:17:00;;;;;;;28.02;14.23;;;;;;;-0.03;100.00;98212.53;5021565;28;20042;-79
2021/01/15 08:19:27;;;;;;;34.28;15.02;;;;;;;-0.05;100.00;98219.94;5008850;28;20104;-77
2021/01/15 08:21:54;;;;;;;29.52;13.23;;;;;;;0.03;100.00;98228.63;5000990;28;20096;-76
2021/01/15 08:24:23;;;;;;;29.42;13.95;;;;;;;0.06;100.00;98220.16;5020771;28;20077;-76
2021/01/15 08:26:52;;;;;;;34.55;15.02;;;;;;;-0.02;100.00;98227.47;5005057;28;20071;-78
2021/01/15 08:29:23;;;;;;;32.25;14.90;;;;;;;0.08;100.00;98236.72;5021056;28;20045;-76
2021/01/15 08:31:56;;;;;;;32.58;14.65;;;;;;;0.05;100.00;98230.03;5021559;28;20125;-78
2021/01/15 08:34:30;;;;;;;32.33;14.57;;;;;;;0.04;100.00;98228.41;5021942;28;20042;-79
2021/01/15 08:36:59;;;;;;;29.55;13.43;;;;;;;0.00;100.00;98238.69;5001895;28;20544;-78
2021/01/15 08:39:26;;;;;;;32.45;13.05;;;;;;;0.07;100.00;98235.91;5001669;28;20046;-78
2021/01/15 08:41:56;;;;;;;28.88;14.10;;;;;;;0.02;100.00;98241.13;5001700;28;20054;-79
2021/01/15 08:44:34;;;;;;;27.85;13.60;;;;;;;-0.08;100.00;98225.72;5014808;28;20096;-79
2021/01/15 08:47:07;;;;;;;22.33;11.77;;;;;;;-0.11;100.00;98241.38;5018390;28;20069;-80
2021/01/15 08:49:33;;;;;;;25.02;12.20;;;;;;;-0.12;100.00;98245.06;5015742;28;20042;-80
2021/01/15 08:52:01;;;;;;;27.00;13.07;;;;;;;-0.05;100.00;98238.56;5019279;28;20046;-79
2021/01/15 08:54:33;;;;;;;25.73;13.32;;;;;;;-0.07;100.00;98238.00;5002230;28;20062;-80
2021/01/15 08:57:01;;;;;;;28.17;12.40;;;;;;;-0.12;100.00;98227.25;5016656;28;20065;-79
2021/01/15 08:59:33;;;;;;;29.08;12.88;;;;;;;-0.04;100.00;98231.41;5018871;28;20399;-79
2021/01/15 09:02:01;;;;;;;31.90;13.75;;;;;;;-0.10;100.00;98245.63;5017465;28;20046;-78
2021/01/15 09:04:30;;;;;;;31.42;14.20;;;;;;;-0.05;100.00;98251.06;5002155;28;20212;-79
2021/01/15 09:07:00;;;;;;;31.83;16.05;;;;;;;-0.09;100.00;98245.41;5018747;28;20041;-80
2021/01/15 09:09:31;;;;;;;34.25;14.90;;;;;;;-0.01;100.00;98255.72;5019044;28;20128;-78
2021/01/15 09:12:05;;;;;;;31.17;13.95;;;;;;;-0.02;100.00;98259.41;5025874;28;20045;-79
2021/01/15 09:14:40;;;;;;;29.15;14.25;;;;;;;-0.12;100.00;98253.03;5024427;28;20049;-81
2021/01/15 09:17:08;;;;;;;27.70;13.93;;;;;;;-0.18;100.00;98261.97;5019574;28;20037;-79
2021/01/15 09:19:35;;;;;;;29.52;13.45;;;;;;;-0.19;100.00;98268.31;4995896;28;20771;-79
2021/01/15 09:22:04;;;;;;;33.15;14.35;;;;;;;-0.14;100.00;98266.59;4996990;28;20050;-78
2021/01/15 09:24:32;;;;;;;30.88;14.20;;;;;;;-0.09;100.00;98269.34;5013440;28;20046;-80
2021/01/15 09:27:05;;;;;;;35.35;14.55;;;;;;;-0.04;100.00;98272.13;5014679;28;20076;-81
2021/01/15 09:29:34;;;;;;;36.45;14.70;;;;;;;-0.11;100.00;98273.28;5017002;28;20513;-79
2021/01/15 09:32:02;;;;;;;29.88;14.27;;;;;;;0.04;100.00;98276.31;5013077;28;20500;-80
2021/01/15 09:34:32;;;;;;;27.88;13.30;;;;;;;-0.12;100.00;98263.69;5008921;28;20053;-81
2021/01/15 09:36:59;;;;;;;26.98;13.52;;;;;;;0.18;100.00;98283.00;5005619;28;20186;-79
2021/01/15 09:39:27;;;;;;;31.85;14.57;;;;;;;0.07;100.00;98273.19;4994661;28;20053;-79
2021/01/15 09:41:55;;;;;;;29.88;13.85;;;;;;;0.16;100.00;98278.94;4994102;28;20042;-78
2021/01/15 09:44:24;;;;;;;32.60;14.65;;;;;;;0.03;100.00;98271.22;4994677;28;20049;-78
2021/01/15 09:46:56;;;;;;;30.80;14.82;;;;;;;0.17;100.00;98280.56;4994404;28;20061;-79
2021/01/15 09:49:22;;;;;;;31.83;13.80;;;;;;;0.22;100.00;98270.03;4994040;28;20129;-78
2021/01/15 09:51:50;;;;;;;32.38;14.88;;;;;;;0.13;100.00;98287.41;5002266;28;20524;-77
2021/01/15 09:54:16;;;;;;;34.35;15.88;;;;;;;0.37;100.00;98286.34;5010643;28;20060;-77
2021/01/15 09:56:43;;;;;;;31.50;13.82;;;;;;;0.28;100.00;98277.91;4991511;28;20050;-78
2021/01/15 09:59:15;;;;;;;32.55;14.60;;;;;;;0.15;100.00;98283.47;4991826;28;20046;-77
2021/01/15 10:01:41;;;;;;;31.00;14.45;;;;;;;0.17;100.00;98280.56;4991307;28;20043;-78
2021/01/15 10:04:09;;;;;;;30.45;14.13;;;;;;;0.08;100.00;98279.31;4992139;28;20043;-78
2021/01/15 10:06:40;;;;;;;27.35;13.57;;;;;;;-0.04;100.00;98280.13;4991498;28;20061;-77
2021/01/15 10:09:08;;;;;;;31.63;14.68;;;;;;;0.04;100.00;98284.28;4991107;28;20047;-77
2021/01/15 10:11:39;;;;;;;28.58;13.30;;;;;;;-0.09;100.00;98285.31;4997001;28;20462;-80
2021/01/15 10:14:08;;;;;;;28.45;13.73;;;;;;;-0.14;100.00;98293.19;4996143;28;20053;-78
2021/01/15 10:16:39;;;;;;;27.67;13.85;;;;;;;0.01;100.00;98287.41;5009913;28;20409;-78
2021/01/15 10:19:05;;;;;;;27.00;13.55;;;;;;;0.07;100.00;98288.34;4991697;28;20111;-78
2021/01/15 10:21:32;;;;;;;27.45;13.20;;;;;;;0.17;100.00;98294.69;4993926;28;20069;-79
2021/01/15 10:23:59;;;;;;;27.30;13.13;;;;;;;0.15;100.00;98293.31;5010168;28;20034;-78
2021/01/15 10:26:31;;;;;;;28.02;12.93;;;;;;;0.16;100.00;98289.59;5012824;28;20531;-80
2021/01/15 10:29:02;;;;;;;29.35;13.50;;;;;;;0.28;100.00;98293.91;5013670;28;20046;-80
2021/01/15 10:31:43;;;;;;;26.80;12.98;;;;;;;0.14;100.00;98289.03;5012432;28;20084;-80
2021/01/15 10:34:10;;;;;;;26.80;13.13;;;;;;;0.08;100.00;98289.97;5010086;28;20057;-79
2021/01/15 10:36:39;;;;;;;31.30;13.80;;;;;;;0.15;100.00;98282.66;5010012;28;20065;-78
2021/01/15 10:39:05;;;;;;;28.45;13.63;;;;;;;0.15;100.00;98291.47;5001732;28;20042;-78
2021/01/15 10:41:36;;;;;;;27.98;12.95;;;;;;;0.14;100.00;98294.34;5002994;28;20061;-78
2021/01/15 10:44:04;;;;;;;28.67;13.38;;;;;;;0.31;100.00;98279.31;4988430;28;20504;-78
2021/01/15 10:46:39;;;;;;;26.52;12.75;;;;;;;0.57;100.00;98292.09;4999874;28;20053;-78
2021/01/15 10:49:05;;;;;;;30.73;12.02;;;;;;;0.73;100.00;98285.22;4997579;28;20038;-76
2021/01/15 10:51:32;;;;;;;24.58;12.02;;;;;;;0.38;100.00;98286.13;4998174;28;20042;-80
2021/01/15 10:53:59;;;;;;;28.88;13.13;;;;;;;0.65;100.00;98290.94;5008439;28;20041;-80
2021/01/15 10:56:40;;;;;;;26.90;12.43;;;;;;;0.45;100.00;98301.97;4999398;28;20493;-78
2021/01/15 10:59:07;;;;;;;27.48;12.55;;;;;;;0.52;100.00;98300.78;5000663;28;20038;-78
2021/01/15 11:01:44;;;;;;;24.83;10.77;;;;;;;0.21;100.00;98292.38;4963311;28;20053;-77
2021/01/15 11:04:14;;;;;;;20.92;10.73;;;;;;;0.07;100.00;98298.97;5005403;28;20049;-77
2021/01/15 11:06:45;;;;;;;20.88;10.75;;;;;;;0.02;100.00;98299.69;5002367;28;20039;-79
2021/01/15 11:09:19;;;;;;;24.08;11.70;;;;;;;0.05;100.00;98298.41;4996518;28;20378;-77
2021/01/15 11:12:01;;;;;;;25.83;11.45;;;;;;;-0.03;100.00;98300.34;4998931;28;20049;-76
2021/01/15 11:14:30;;;;;;;26.33;12.52;;;;;;;-0.10;100.00;98306.81;4990099;28;20571;-76
2021/01/15 11:16:56;;;;;;;26.27;12.95;;;;;;;0.07;100.00;98301.63;5011396;28;20042;-77
2021/01/15 11:19:26;;;;;;;24.52;11.77;;;;;;;0.20;100.00;98304.88;5014344;23;20054;-77
2021/01/15 11:21:54;;;;;;;24.77;11.68;;;;;;;0.16;100.00;98292.25;4992598;28;20042;-77
2021/01/15 11:24:20;;;;;;;25.35;11.50;;;;;;;0.28;100.00;98295.75;4974898;28;20510;-76
2021/01/15 11:26:47;;;;;;;29.13;14.38;;;;;;;0.15;100.00;98293.31;4975389;28;20043;-77
2021/01/15 11:29:14;;;;;;;29.35;14.35;;;;;;;0.09;100.00;98297.72;4990680;28;20101;-77